createdAt,value
2022-11-02T00:01:20.442Z,51.10
2022-11-02T00:03:22.442Z,54.65
2022-11-02T00:05:24.808Z,64.50
2022-11-02T00:07:26.642Z,60.78
2022-11-02T00:09:28.486Z,61.83
2022-11-02T00:11:30.602Z,51.63
2022-11-02T00:15:36.072Z,55.42
2022-11-02T00:17:39.682Z,61.10
2022-11-02T00:19:41.591Z,64.22
2022-11-02T00:21:43.649Z,55.25
2022-11-02T00:25:50.335Z,55.17
2022-11-02T00:27:52.255Z,60.58
2022-11-02T00:29:54.290Z,55.22
2022-11-02T00:31:58.433Z,59.00
2022-11-02T00:34:00.282Z,60.90
2022-11-02T00:36:02.174Z,62.85
2022-11-02T00:38:04.879Z,59.85
2022-11-02T00:40:07.543Z,54.42
2022-11-02T00:42:09.509Z,57.67
2022-11-02T00:44:11.350Z,57.60
2022-11-02T00:46:13.223Z,57.72
2022-11-02T00:48:15.109Z,53.38
2022-11-02T00:50:17.231Z,59.20
2022-11-02T00:54:24.517Z,52.92
2022-11-02T00:56:29.412Z,55.08
2022-11-02T00:58:31.235Z,52.28
2022-11-02T01:00:33.107Z,58.70
2022-11-02T01:02:35.220Z,54.92
2022-11-02T01:04:37.196Z,55.40
2022-11-02T01:06:39.081Z,58.58
2022-11-02T01:08:42.543Z,53.55
2022-11-02T01:10:48.112Z,50.67
2022-11-02T01:12:50.452Z,51.60
2022-11-02T01:14:52.340Z,55.38
2022-11-02T01:16:54.252Z,56.83
2022-11-02T01:18:57.331Z,51.97
2022-11-02T01:20:59.968Z,44.50
2022-11-02T01:23:01.793Z,51.42
2022-11-02T01:25:04.439Z,54.63
2022-11-02T01:27:06.268Z,48.80
2022-11-02T01:29:08.169Z,49.38
2022-11-02T01:31:11.184Z,59.08
2022-11-02T01:33:13.048Z,42.35
2022-11-02T01:35:14.933Z,46.55
2022-11-02T01:37:16.850Z,44.30
2022-11-02T01:39:18.698Z,49.95
2022-11-02T01:41:20.557Z,45.25
2022-11-02T01:43:26.433Z,46.88
2022-11-02T01:45:28.457Z,46.80
2022-11-02T01:49:37.912Z,43.05
2022-11-02T01:51:42.167Z,43.63
2022-11-02T01:53:49.441Z,44.22
2022-11-02T01:55:51.689Z,43.45
2022-11-02T01:57:57.880Z,46.58
2022-11-02T02:00:07.791Z,39.58
2022-11-02T02:02:16.928Z,43.58
2022-11-02T02:04:20.038Z,37.45
2022-11-02T02:06:22.183Z,34.42
2022-11-02T02:08:26.980Z,39.72
2022-11-02T02:10:28.825Z,39.47
2022-11-02T02:12:32.153Z,39.33
2022-11-02T02:14:35.158Z,35.55
2022-11-02T02:17:07.890Z,33.53
2022-11-02T02:21:33.463Z,37.50
2022-11-02T02:23:58.540Z,35.30
2022-11-02T02:26:12.284Z,36.95
2022-11-02T02:28:33.724Z,39.40
2022-11-02T02:30:41.300Z,40.55
2022-11-02T02:33:08.231Z,37.78
2022-11-02T02:35:16.562Z,34.72
2022-11-02T02:37:27.955Z,40.33
2022-11-02T02:39:48.794Z,42.67
2022-11-02T02:42:09.851Z,48.95
2022-11-02T02:44:17.852Z,44.58
2022-11-02T02:46:25.752Z,47.33
2022-11-02T02:48:27.748Z,33.47
2022-11-02T02:50:45.129Z,41.60
2022-11-02T02:52:50.772Z,38.15
2022-11-02T02:54:57.117Z,32.60
2022-11-02T02:57:06.833Z,37.50
2022-11-02T02:59:13.559Z,33.28
2022-11-02T03:01:17.153Z,36.08
2022-11-02T03:03:24.026Z,38.65
2022-11-02T03:05:31.563Z,31.35
2022-11-02T03:07:34.516Z,32.17
2022-11-02T03:10:17.645Z,30.42
2022-11-02T03:12:40.772Z,32.83
2022-11-02T03:15:05.410Z,38.65
2022-11-02T03:17:20.529Z,37.08
2022-11-02T03:19:42.764Z,33.42
2022-11-02T03:21:45.594Z,36.03
2022-11-02T03:24:00.665Z,41.17
2022-11-02T03:26:05.517Z,34.75
2022-11-02T03:28:13.281Z,30.77
2022-11-02T03:30:19.873Z,32.50
2022-11-02T03:32:29.287Z,33.65
2022-11-02T03:34:39.223Z,32.28
2022-11-02T03:37:06.110Z,35.28
2022-11-02T03:39:11.593Z,34.72
2022-11-02T03:41:14.948Z,39.10
2022-11-02T03:43:18.501Z,37.20
2022-11-02T03:45:23.750Z,39.58
2022-11-02T03:47:30.988Z,38.60
2022-11-02T03:49:34.152Z,38.70
2022-11-02T03:51:42.938Z,39.55
2022-11-02T03:53:52.811Z,33.60
2022-11-02T03:56:01.064Z,37.40
2022-11-02T03:58:03.552Z,31.60
2022-11-02T04:00:26.782Z,33.72
2022-11-02T04:02:30.110Z,42.55
2022-11-02T04:04:32.201Z,36.28
2022-11-02T04:06:35.213Z,38.45
2022-11-02T04:08:40.669Z,34.22
2022-11-02T04:11:02.680Z,39.15
2022-11-02T04:13:23.283Z,35.60
2022-11-02T04:15:25.084Z,33.45
2022-11-02T04:17:45.862Z,28.45
2022-11-02T04:19:50.078Z,30.55
2022-11-02T04:22:10.634Z,29.58
2022-11-02T04:24:31.231Z,28.48
2022-11-02T04:26:33.246Z,27.88
2022-11-02T04:28:35.929Z,22.38
2022-11-02T04:30:37.797Z,29.02
2022-11-02T04:32:59.188Z,24.83
2022-11-02T04:39:53.817Z,24.27
2022-11-02T04:44:15.966Z,24.58
2022-11-02T04:46:17.919Z,25.35
2022-11-02T04:48:19.989Z,29.27
2022-11-02T04:52:23.652Z,30.53
2022-11-02T04:54:26.102Z,26.95
2022-11-02T04:56:29.601Z,28.75
2022-11-02T04:58:31.435Z,23.70
2022-11-02T05:00:33.274Z,24.02
2022-11-02T05:02:35.322Z,28.58
2022-11-02T05:06:38.951Z,33.10
2022-11-02T05:08:40.985Z,24.75
2022-11-02T05:12:44.664Z,22.65
2022-11-02T05:14:46.558Z,25.63
2022-11-02T05:16:48.389Z,25.70
2022-11-02T05:18:50.205Z,23.08
2022-11-02T05:20:53.886Z,23.27
2022-11-02T05:22:55.739Z,23.40
2022-11-02T05:24:57.612Z,22.35
2022-11-02T05:27:00.537Z,25.77
2022-11-02T05:29:02.717Z,26.48
2022-11-02T05:31:05.504Z,25.05
2022-11-02T05:33:07.565Z,40.30
2022-11-02T05:35:09.991Z,28.92
2022-11-02T05:37:11.852Z,22.50
2022-11-02T05:39:13.844Z,29.52
2022-11-02T05:41:15.693Z,34.20
2022-11-02T05:43:17.751Z,27.73
2022-11-02T05:47:26.471Z,28.60
2022-11-02T05:49:28.307Z,32.03
2022-11-02T05:51:30.235Z,32.95
2022-11-02T05:53:34.143Z,30.85
2022-11-02T05:55:36.086Z,36.17
2022-11-02T05:57:38.147Z,40.38
2022-11-02T06:01:42.855Z,30.85
2022-11-02T06:03:48.995Z,38.78
2022-11-02T06:05:58.416Z,34.38
2022-11-02T06:08:03.442Z,24.30
2022-11-02T06:10:05.911Z,27.90
2022-11-02T06:12:08.074Z,23.95
2022-11-02T06:16:19.985Z,27.15
2022-11-02T06:18:24.389Z,27.85
2022-11-02T06:20:26.234Z,21.30
2022-11-02T06:22:28.099Z,19.30
2022-11-02T06:24:30.012Z,19.98
2022-11-02T06:26:31.862Z,18.75
2022-11-02T06:28:33.759Z,16.88
2022-11-02T06:30:35.691Z,18.15
2022-11-02T06:32:37.555Z,17.27
2022-11-02T06:34:39.411Z,16.90
2022-11-02T06:36:41.288Z,20.98
2022-11-02T06:38:44.159Z,16.33
2022-11-02T06:41:07.717Z,16.20
2022-11-02T06:43:17.942Z,21.50
2022-11-02T06:45:19.943Z,17.85
2022-11-02T06:47:21.917Z,23.83
2022-11-02T06:49:23.787Z,30.75
2022-11-02T06:51:25.616Z,35.15
2022-11-02T06:53:27.480Z,23.70
2022-11-02T06:55:29.323Z,26.10
2022-11-02T06:57:36.977Z,26.17
2022-11-02T06:59:38.823Z,49.70
2022-11-02T07:01:40.927Z,38.25
2022-11-02T07:03:42.907Z,27.75
2022-11-02T07:05:53.544Z,17.92
2022-11-02T07:07:55.700Z,19.45
2022-11-02T07:11:59.336Z,17.70
2022-11-02T07:14:01.239Z,24.30
2022-11-02T07:16:03.146Z,19.83
2022-11-02T07:18:06.344Z,23.15
2022-11-02T07:20:10.714Z,21.80
2022-11-02T07:22:12.561Z,25.75
2022-11-02T07:24:14.510Z,26.10
2022-11-02T07:26:16.329Z,26.83
2022-11-02T07:28:18.352Z,30.20
2022-11-02T07:30:21.987Z,25.90
2022-11-02T07:32:24.096Z,29.17
2022-11-02T07:36:27.700Z,27.30
2022-11-02T07:38:29.553Z,27.65
2022-11-02T07:40:33.070Z,25.48
2022-11-02T07:42:35.475Z,21.40
2022-11-02T07:44:37.327Z,26.52
2022-11-02T07:46:39.143Z,19.83
2022-11-02T07:48:41.038Z,21.98
2022-11-02T07:50:42.889Z,16.50
2022-11-02T07:52:50.195Z,20.90
2022-11-02T07:54:52.313Z,18.38
2022-11-02T07:58:55.996Z,15.80
2022-11-02T08:01:00.031Z,17.73
2022-11-02T08:03:04.161Z,15.40
2022-11-02T08:05:06.727Z,21.67
2022-11-02T08:09:11.488Z,17.88
2022-11-02T08:11:13.400Z,22.80
2022-11-02T08:13:17.792Z,25.15
2022-11-02T08:15:19.648Z,24.17
2022-11-02T08:17:21.906Z,21.65
2022-11-02T08:19:23.827Z,21.30
2022-11-02T08:21:26.404Z,21.63
2022-11-02T08:23:28.341Z,20.20
2022-11-02T08:25:30.342Z,22.52
2022-11-02T08:27:32.898Z,17.40
2022-11-02T08:29:36.835Z,24.13
2022-11-02T08:31:38.814Z,21.70
2022-11-02T08:33:40.781Z,28.73
2022-11-02T08:35:44.733Z,22.13
2022-11-02T08:37:53.934Z,22.60
2022-11-02T08:39:55.884Z,21.55
2022-11-02T08:41:57.700Z,63.15
2022-11-02T08:43:59.811Z,26.02
2022-11-02T08:48:17.855Z,19.45
2022-11-02T08:50:19.873Z,20.05
2022-11-02T08:52:21.722Z,19.52
2022-11-02T08:54:23.574Z,18.55
2022-11-02T08:56:25.558Z,18.45
2022-11-02T08:58:27.614Z,20.17
2022-11-02T09:02:32.566Z,19.48
2022-11-02T09:04:34.472Z,18.95
2022-11-02T09:06:36.386Z,18.23
2022-11-02T09:08:38.253Z,21.15
2022-11-02T09:10:40.330Z,20.95
2022-11-02T09:14:45.053Z,21.23
2022-11-02T09:16:46.909Z,21.50
2022-11-02T09:18:48.734Z,19.25
2022-11-02T09:20:51.520Z,18.25
2022-11-02T09:22:53.586Z,21.73
2022-11-02T09:24:55.410Z,18.27
2022-11-02T09:26:57.330Z,25.60
2022-11-02T09:28:59.197Z,26.40
2022-11-02T09:31:01.090Z,23.02
2022-11-02T09:33:05.715Z,19.35
2022-11-02T09:35:10.911Z,18.05
2022-11-02T09:37:12.830Z,20.10
2022-11-02T09:39:14.807Z,21.85
2022-11-02T09:41:47.478Z,17.80
2022-11-02T09:44:10.920Z,29.08
2022-11-02T09:46:27.246Z,19.75
2022-11-02T09:48:35.447Z,23.10
2022-11-02T09:50:50.255Z,26.38
2022-11-02T09:52:58.540Z,25.50
2022-11-02T09:55:05.169Z,27.98
2022-11-02T09:57:13.141Z,38.55
2022-11-02T09:59:20.591Z,21.55
2022-11-02T10:01:33.076Z,25.80
2022-11-02T10:04:00.499Z,17.83
2022-11-02T10:06:15.888Z,22.30
2022-11-02T10:08:42.150Z,30.95
2022-11-02T10:11:07.746Z,22.45
2022-11-02T10:13:40.740Z,18.77
2022-11-02T10:16:20.979Z,24.23
2022-11-02T10:18:28.491Z,25.20
2022-11-02T10:20:44.709Z,18.33
2022-11-02T10:22:47.780Z,17.85
2022-11-02T10:24:50.918Z,16.45
2022-11-02T10:26:56.679Z,17.75
2022-11-02T10:29:01.902Z,17.65
2022-11-02T10:31:04.664Z,19.55
2022-11-02T10:33:18.118Z,18.10
2022-11-02T10:35:41.159Z,18.02
2022-11-02T10:38:04.497Z,19.33
2022-11-02T10:40:21.009Z,18.77
2022-11-02T10:43:00.725Z,16.23
2022-11-02T10:45:33.014Z,21.38
2022-11-02T10:47:51.812Z,20.60
2022-11-02T10:50:24.047Z,18.60
2022-11-02T10:52:29.000Z,17.73
2022-11-02T10:54:34.488Z,20.67
2022-11-02T10:56:36.735Z,20.20
2022-11-02T10:58:44.016Z,18.83
2022-11-02T11:00:47.813Z,17.83
2022-11-02T11:03:22.745Z,19.65
2022-11-02T11:05:24.693Z,14.82
2022-11-02T11:07:28.010Z,20.15
2022-11-02T11:09:47.014Z,20.10
2022-11-02T11:12:04.764Z,17.90
2022-11-02T11:16:54.085Z,17.92
2022-11-02T11:21:18.666Z,24.35
2022-11-02T11:23:27.037Z,25.20
2022-11-02T11:25:28.951Z,20.08
2022-11-02T11:27:30.807Z,18.33
2022-11-02T11:29:35.494Z,24.50
2022-11-02T11:31:37.432Z,21.42
2022-11-02T11:33:56.000Z,20.80
2022-11-02T11:35:57.904Z,22.30
2022-11-02T11:38:20.146Z,24.90
2022-11-02T11:40:22.812Z,22.33
2022-11-02T11:42:28.913Z,23.45
2022-11-02T11:44:31.718Z,21.63
2022-11-02T11:46:46.781Z,21.90
2022-11-02T11:48:52.907Z,24.33
2022-11-02T11:50:54.871Z,24.30
2022-11-02T11:53:31.683Z,23.58
2022-11-02T11:55:33.789Z,22.27
2022-11-02T11:59:43.180Z,24.77
2022-11-02T12:01:45.115Z,17.63
2022-11-02T12:03:57.107Z,20.92
2022-11-02T12:06:14.027Z,25.55
2022-11-02T12:08:40.173Z,20.25
2022-11-02T12:10:47.960Z,23.55
2022-11-02T12:13:01.656Z,24.60
2022-11-02T12:15:28.840Z,22.60
2022-11-02T12:18:03.804Z,18.85
2022-11-02T12:20:29.776Z,19.15
2022-11-02T12:22:50.062Z,19.65
2022-11-02T12:25:06.863Z,20.88
2022-11-02T12:27:29.453Z,21.52
2022-11-02T12:31:38.770Z,19.25
2022-11-02T12:33:50.648Z,19.58
2022-11-02T12:36:01.237Z,19.27
2022-11-02T12:38:36.905Z,22.95
2022-11-02T12:41:09.670Z,21.90
2022-11-02T12:45:29.948Z,19.55
2022-11-02T12:47:57.733Z,21.48
2022-11-02T12:50:11.556Z,20.67
2022-11-02T12:52:22.753Z,24.42
2022-11-02T12:54:41.722Z,24.33
2022-11-02T12:56:52.730Z,23.50
2022-11-02T12:58:55.723Z,30.23
2022-11-02T13:01:21.470Z,23.30
2022-11-02T13:03:29.191Z,25.25
2022-11-02T13:05:38.725Z,21.70
2022-11-02T13:08:10.378Z,29.40
2022-11-02T13:10:23.911Z,24.42
2022-11-02T13:12:26.918Z,25.95
2022-11-02T13:14:38.256Z,26.15
2022-11-02T13:16:50.613Z,26.60
2022-11-02T13:21:03.045Z,25.70
2022-11-02T13:23:14.434Z,26.35
2022-11-02T13:25:20.927Z,23.95
2022-11-02T13:27:37.278Z,26.52
2022-11-02T13:29:48.849Z,24.83
2022-11-02T13:32:19.164Z,26.95
2022-11-02T13:34:35.997Z,25.27
2022-11-02T13:36:39.317Z,26.88
2022-11-02T13:39:02.096Z,23.35
2022-11-02T13:41:28.191Z,27.52
2022-11-02T13:43:33.003Z,23.35
2022-11-02T13:45:40.885Z,24.95
2022-11-02T13:47:45.696Z,29.65
2022-11-02T13:49:53.239Z,26.17
2022-11-02T13:52:20.644Z,31.25
2022-11-02T13:54:36.738Z,34.33
2022-11-02T13:56:39.037Z,28.75
2022-11-02T13:58:49.146Z,29.05
2022-11-02T14:00:52.862Z,26.45
2022-11-02T14:02:57.202Z,32.97
2022-11-02T14:05:00.083Z,30.45
2022-11-02T14:07:05.390Z,31.98
2022-11-02T14:09:10.558Z,26.45
2022-11-02T14:11:15.449Z,27.40
2022-11-02T14:13:17.681Z,30.83
2022-11-02T14:15:19.496Z,23.90
2022-11-02T14:17:21.386Z,26.38
2022-11-02T14:19:48.620Z,22.27
2022-11-02T14:21:59.479Z,22.70
2022-11-02T14:24:01.440Z,40.78
2022-11-02T14:26:03.505Z,37.58
2022-11-02T14:30:44.072Z,34.72
2022-11-02T14:33:06.931Z,34.65
2022-11-02T14:35:37.846Z,31.23
2022-11-02T14:38:16.161Z,39.55
2022-11-02T14:40:26.130Z,34.25
2022-11-02T14:42:41.410Z,35.00
2022-11-02T14:45:15.757Z,36.25
2022-11-02T14:47:19.421Z,37.65
2022-11-02T14:49:27.119Z,41.53
2022-11-02T14:51:33.995Z,39.95
2022-11-02T14:53:37.479Z,42.70
2022-11-02T14:55:39.788Z,34.97
2022-11-02T14:57:44.842Z,32.92
2022-11-02T14:59:50.673Z,35.15
2022-11-02T15:01:59.548Z,45.72
2022-11-02T15:04:07.926Z,39.88
2022-11-02T15:06:15.035Z,36.90
2022-11-02T15:08:24.261Z,34.80
2022-11-02T15:10:32.153Z,34.28
2022-11-02T15:12:40.914Z,35.47
2022-11-02T15:14:42.741Z,36.60
2022-11-02T15:16:45.543Z,34.70
2022-11-02T15:18:48.267Z,44.83
2022-11-02T15:21:25.991Z,30.80
2022-11-02T15:23:31.565Z,36.70
2022-11-02T15:25:41.475Z,33.80
2022-11-02T15:27:44.981Z,36.22
2022-11-02T15:29:48.255Z,35.45
2022-11-02T15:31:56.055Z,38.88
2022-11-02T15:34:05.636Z,33.50
2022-11-02T15:36:18.077Z,35.20
2022-11-02T15:38:32.535Z,40.60
2022-11-02T15:40:50.803Z,42.88
2022-11-02T15:42:59.141Z,47.58
2022-11-02T15:45:57.813Z,37.85
2022-11-02T15:48:34.867Z,39.13
2022-11-02T15:50:58.179Z,37.83
2022-11-02T15:53:30.288Z,35.30
2022-11-02T15:55:41.164Z,31.42
2022-11-02T15:58:15.256Z,33.10
2022-11-02T16:00:21.848Z,31.70
2022-11-02T16:02:40.046Z,34.78
2022-11-02T16:04:47.661Z,40.75
2022-11-02T16:06:49.696Z,36.55
2022-11-02T16:08:51.677Z,42.97
2022-11-02T16:11:04.886Z,39.40
2022-11-02T16:13:14.590Z,45.83
2022-11-02T16:15:19.212Z,47.25
2022-11-02T16:17:22.502Z,46.30
2022-11-02T16:19:24.341Z,45.25
2022-11-02T16:21:27.369Z,38.35
2022-11-02T16:23:31.704Z,43.70
2022-11-02T16:25:39.681Z,44.85
2022-11-02T16:27:43.346Z,45.65
2022-11-02T16:29:48.007Z,41.60
2022-11-02T16:31:49.989Z,47.92
2022-11-02T16:33:59.974Z,43.00
2022-11-02T16:36:02.312Z,45.30
2022-11-02T16:38:04.636Z,44.72
2022-11-02T16:40:07.528Z,49.17
2022-11-02T16:42:22.891Z,45.50
2022-11-02T16:44:27.699Z,48.28
2022-11-02T16:46:32.208Z,53.75
2022-11-02T16:48:34.191Z,47.15
2022-11-02T16:50:36.122Z,52.65
2022-11-02T16:52:38.382Z,46.92
2022-11-02T16:54:42.098Z,45.85
2022-11-02T16:56:49.072Z,46.17
2022-11-02T16:58:52.786Z,48.03
2022-11-02T17:01:05.222Z,46.45
2022-11-02T17:03:10.108Z,46.72
2022-11-02T17:05:22.063Z,46.78
2022-11-02T17:07:58.188Z,47.58
2022-11-02T17:10:02.781Z,53.38
2022-11-02T17:12:14.718Z,55.35
2022-11-02T17:14:19.545Z,53.72
2022-11-02T17:16:21.805Z,53.15
2022-11-02T17:18:27.542Z,45.28
2022-11-02T17:20:29.558Z,54.80
2022-11-02T17:22:36.861Z,52.38
2022-11-02T17:24:39.074Z,49.03
2022-11-02T17:26:42.014Z,52.15
2022-11-02T17:28:46.513Z,47.72
2022-11-02T17:30:48.755Z,54.65
2022-11-02T17:32:50.690Z,54.75
2022-11-02T17:34:57.275Z,54.20
2022-11-02T17:36:59.236Z,55.58
2022-11-02T17:39:04.908Z,55.88
2022-11-02T17:41:25.688Z,54.40
2022-11-02T17:43:28.100Z,55.47
2022-11-02T17:45:31.459Z,65.97
2022-11-02T17:47:33.297Z,55.13
2022-11-02T17:49:35.332Z,56.35
2022-11-02T17:53:39.348Z,56.05
2022-11-02T17:55:41.618Z,52.25
2022-11-02T17:57:43.645Z,49.28
2022-11-02T17:59:45.520Z,44.58
2022-11-02T18:01:47.624Z,50.40
2022-11-02T18:03:49.669Z,46.05
2022-11-02T18:05:55.790Z,43.17
2022-11-02T18:08:00.839Z,49.15
2022-11-02T18:10:02.795Z,49.05
2022-11-02T18:12:04.816Z,47.85
2022-11-02T18:14:06.814Z,47.47
2022-11-02T18:16:08.694Z,49.92
2022-11-02T18:18:11.114Z,60.05
2022-11-02T18:20:14.059Z,54.05
2022-11-02T18:22:16.039Z,51.45
2022-11-02T18:24:17.993Z,46.00
2022-11-02T18:26:19.938Z,50.83
2022-11-02T18:28:21.780Z,56.83
2022-11-02T18:30:28.233Z,69.47
2022-11-02T18:32:30.185Z,58.72
2022-11-02T18:34:32.027Z,54.17
2022-11-02T18:36:36.858Z,51.38
2022-11-02T18:38:38.814Z,54.25
2022-11-02T18:40:40.730Z,55.15
2022-11-02T18:42:43.843Z,50.05
2022-11-02T18:44:45.735Z,57.80
2022-11-02T18:46:48.198Z,52.83
2022-11-02T18:48:50.367Z,48.25
2022-11-02T18:52:54.028Z,53.67
2022-11-02T18:54:56.590Z,56.53
2022-11-02T18:56:58.481Z,59.40
2022-11-02T18:59:00.417Z,51.80
2022-11-02T19:01:10.213Z,52.22
2022-11-02T19:03:12.270Z,73.13
2022-11-02T19:05:32.901Z,48.33
2022-11-02T19:07:53.416Z,63.15
2022-11-02T19:09:57.433Z,50.30
2022-11-02T19:12:07.694Z,55.60
2022-11-02T19:14:09.590Z,63.33
2022-11-02T19:16:11.671Z,48.78
2022-11-02T19:20:15.310Z,46.83
2022-11-02T19:22:25.864Z,49.97
2022-11-02T19:24:27.735Z,64.75
2022-11-02T19:26:29.867Z,47.40
2022-11-02T19:30:33.658Z,48.28
2022-11-02T19:32:35.496Z,54.83
2022-11-02T19:34:38.287Z,50.42
2022-11-02T19:36:40.640Z,53.75
2022-11-02T19:38:42.468Z,48.05
2022-11-02T19:40:44.342Z,56.55
2022-11-02T19:42:48.749Z,50.28
2022-11-02T19:44:50.663Z,53.42
2022-11-02T19:46:52.715Z,68.10
2022-11-02T19:51:07.917Z,75.25
2022-11-02T19:53:09.962Z,53.38
2022-11-02T19:57:13.616Z,54.47
2022-11-02T19:59:15.571Z,52.88
2022-11-02T20:01:29.257Z,56.97
2022-11-02T20:03:31.524Z,73.85
2022-11-02T20:05:33.445Z,51.20
2022-11-02T20:07:35.301Z,42.70
2022-11-02T20:09:39.432Z,47.70
2022-11-02T20:11:44.739Z,57.25
2022-11-02T20:13:48.209Z,43.17
2022-11-02T20:15:50.125Z,52.05
2022-11-02T20:18:17.866Z,50.88
2022-11-02T20:20:13.774Z,49.83
2022-11-02T20:22:15.691Z,43.42
2022-11-02T20:24:17.582Z,43.28
2022-11-02T20:26:23.713Z,43.50
2022-11-02T20:28:25.540Z,54.17
2022-11-02T20:30:27.561Z,46.13
2022-11-02T20:34:31.645Z,47.63
2022-11-02T20:38:37.066Z,60.78
2022-11-02T20:40:41.334Z,74.88
2022-11-02T20:42:43.433Z,53.58
2022-11-02T20:44:49.190Z,53.53
2022-11-02T20:46:53.288Z,48.80
2022-11-02T20:48:57.011Z,47.88
2022-11-02T20:50:59.310Z,46.60
2022-11-02T20:53:01.198Z,52.65
2022-11-02T20:55:03.201Z,49.35
2022-11-02T20:57:06.942Z,47.28
2022-11-02T20:59:08.777Z,59.80
2022-11-02T21:01:11.775Z,43.70
2022-11-02T21:03:14.836Z,43.03
2022-11-02T21:05:17.222Z,66.03
2022-11-02T21:07:19.289Z,45.10
2022-11-02T21:09:21.155Z,44.70
2022-11-02T21:11:41.413Z,48.22
2022-11-02T21:13:52.213Z,64.55
2022-11-02T21:15:54.380Z,46.53
2022-11-02T21:20:14.105Z,44.42
2022-11-02T21:22:19.870Z,45.25
2022-11-02T21:24:21.970Z,52.45
2022-11-02T21:28:34.307Z,48.20
2022-11-02T21:30:36.201Z,52.33
2022-11-02T21:32:38.105Z,44.10
2022-11-02T21:34:40.000Z,46.42
2022-11-02T21:36:41.877Z,44.42
2022-11-02T21:38:48.681Z,46.13
2022-11-02T21:40:50.890Z,51.03
2022-11-02T21:42:52.767Z,56.03
2022-11-02T21:44:54.641Z,45.40
2022-11-02T21:46:57.251Z,43.47
2022-11-02T21:48:59.232Z,44.78
2022-11-02T21:51:06.214Z,57.63
2022-11-02T21:53:08.351Z,53.65
2022-11-02T21:55:10.683Z,59.75
2022-11-02T21:59:14.568Z,47.10
2022-11-02T22:03:38.609Z,50.05
2022-11-02T22:05:59.472Z,49.05
2022-11-02T22:08:20.165Z,68.63
2022-11-02T22:10:22.205Z,49.58
2022-11-02T22:12:42.671Z,65.68
2022-11-02T22:14:44.965Z,50.75
2022-11-02T22:16:46.942Z,51.95
2022-11-02T22:18:49.212Z,50.17
2022-11-02T22:20:55.505Z,56.35
2022-11-02T22:22:57.374Z,58.03
2022-11-02T22:24:59.219Z,45.58
2022-11-02T22:27:01.198Z,50.05
2022-11-02T22:29:04.474Z,46.45
2022-11-02T22:31:10.743Z,54.38
2022-11-02T22:33:12.634Z,51.33
2022-11-02T22:35:14.616Z,51.17
2022-11-02T22:37:35.036Z,55.55
2022-11-02T22:39:36.850Z,60.97
2022-11-02T22:41:45.118Z,57.83
2022-11-02T22:43:52.560Z,55.95
2022-11-02T22:46:05.991Z,62.60
2022-11-02T22:48:07.902Z,47.58
2022-11-02T22:50:09.824Z,49.75
2022-11-02T22:52:11.669Z,52.58
2022-11-02T22:54:16.694Z,57.05
2022-11-02T22:56:20.928Z,50.97
2022-11-02T22:58:22.774Z,59.83
2022-11-02T23:00:24.725Z,54.33
2022-11-02T23:02:26.582Z,47.90
2022-11-02T23:04:28.466Z,54.95
2022-11-02T23:06:30.469Z,53.00
2022-11-02T23:08:39.745Z,53.63
2022-11-02T23:11:00.110Z,66.18
2022-11-02T23:13:02.006Z,50.55
2022-11-02T23:15:04.097Z,53.47
2022-11-02T23:19:33.078Z,51.80
2022-11-02T23:21:35.068Z,63.13
2022-11-02T23:24:03.186Z,57.85
2022-11-02T23:26:05.256Z,58.47
2022-11-02T23:28:25.697Z,63.58
2022-11-02T23:30:54.069Z,45.63
2022-11-02T23:32:55.935Z,55.30
2022-11-02T23:35:20.608Z,46.72
2022-11-02T23:37:22.436Z,63.15
2022-11-02T23:39:42.913Z,50.92
2022-11-02T23:41:44.828Z,52.22
2022-11-02T23:43:47.688Z,47.50
2022-11-02T23:45:49.575Z,59.10
2022-11-02T23:47:57.255Z,47.17
2022-11-02T23:49:59.200Z,60.67
2022-11-02T23:52:19.419Z,54.38
2022-11-02T23:54:40.168Z,56.97
2022-11-02T23:56:45.632Z,51.03
2022-11-02T23:58:48.030Z,55.20
